Terminal Aerodrome Forecast
Issued by NWS

Home | Current Version | Previous Version | Graphics & Text | Print | Product List | Glossary On
Versions: 1 2 3 4 5 6 7 8 9 10 11 12
000
FTUS45 KGGW 301123
TAFSDY
TAF
KSDY 301123Z 3012/0112 21004KT P6SM FEW240
     FM301600 18008KT P6SM FEW220
     FM302300 21008KT P6SM BKN100
     FM011100 27009KT P6SM VCSH BKN070=

USA.gov is the U.S. government's official web portal to all federal, state and local government web resources and services.